Time;durP1;ratioP1;P1;durP2;ratioP2;P2;SDS_P1;SDS_P2;PMS_P1;PMS_P2;Temp;Humidity;BMP_temperature;BMP_pressure;BME280_temperature;BME280_humidity;BME280_pressure;Samples;Min_cycle;Max_cycle;Signal;HPM_P1;HPM_P2
2023/02/12 09:30:37;;;;;;;34.63;21.20;;;;;;;6.69;100.00;101075.91;5151467;27;20524;-80
2023/02/12 09:33:06;;;;;;;34.83;22.60;;;;;;;7.32;100.00;101074.25;5150829;27;39826;-81
2023/02/12 09:35:35;;;;;;;33.40;21.23;;;;;;;7.81;95.34;101055.94;5132982;27;41616;-81
2023/02/12 09:38:02;;;;;;;29.43;21.57;;;;;;;8.50;91.20;101086.47;5133018;27;41563;-81
2023/02/12 09:40:37;;;;;;;30.73;21.10;;;;;;;8.91;87.71;101093.56;5149760;27;40973;-83
2023/02/12 09:43:16;;;;;;;29.97;21.20;;;;;;;9.28;85.32;101101.63;5132789;27;39523;-82
2023/02/12 09:45:54;;;;;;;31.57;21.33;;;;;;;9.53;83.04;101084.31;5146886;27;42416;-83
2023/02/12 09:48:41;;;;;;;27.73;19.43;;;;;;;9.95;81.33;101102.75;5149960;27;42802;-82
2023/02/12 09:51:10;;;;;;;31.47;22.07;;;;;;;10.10;78.69;101089.13;5132696;27;41328;-82
2023/02/12 09:53:42;;;;;;;29.67;20.27;;;;;;;10.31;77.79;101085.09;5132616;27;38979;-83
2023/02/12 09:56:14;;;;;;;29.87;20.00;;;;;;;10.54;77.32;101087.13;5132850;27;41020;-83
2023/02/12 09:58:46;;;;;;;29.50;19.67;;;;;;;10.86;76.30;101099.53;5132334;27;42776;-81
2023/02/12 10:01:18;;;;;;;30.33;20.83;;;;;;;11.09;74.73;101116.53;5149758;27;42551;-82
2023/02/12 10:03:48;;;;;;;31.33;21.87;;;;;;;11.29;74.18;101107.09;5132900;27;39409;-81
2023/02/12 10:06:20;;;;;;;30.90;20.77;;;;;;;11.48;73.29;101103.88;5150752;27;41900;-81
2023/02/12 10:08:59;;;;;;;29.10;21.47;;;;;;;11.66;70.86;101106.88;5147393;27;42622;-83
2023/02/12 10:11:47;;;;;;;27.80;19.60;;;;;;;11.75;71.03;101096.84;5146758;27;42124;-82
2023/02/12 10:14:36;;;;;;;31.30;20.93;;;;;;;12.02;70.19;101096.88;5149649;27;40063;-81
2023/02/12 10:17:13;;;;;;;29.33;20.57;;;;;;;12.30;69.68;101107.47;5132203;27;40930;-83
2023/02/12 10:20:03;;;;;;;32.00;20.50;;;;;;;12.59;67.85;101099.38;5146402;27;42681;-82
2023/02/12 10:22:43;;;;;;;31.63;21.33;;;;;;;12.97;66.48;101115.78;5130528;27;41331;-82
2023/02/12 10:25:24;;;;;;;33.40;22.13;;;;;;;13.28;65.88;101114.59;5126416;27;39218;-82
2023/02/12 10:27:54;;;;;;;30.20;19.80;;;;;;;13.53;65.24;101109.22;5126085;27;40696;-82
2023/02/12 10:30:26;;;;;;;28.10;19.63;;;;;;;13.69;64.46;101096.16;5147360;27;43059;-82
2023/02/12 10:33:03;;;;;;;32.93;21.87;;;;;;;14.14;63.94;101108.53;5130952;27;42671;-82
2023/02/12 10:35:33;;;;;;;33.33;21.80;;;;;;;14.32;60.93;101108.66;5139299;27;40035;-83
2023/02/12 10:38:05;;;;;;;33.70;22.60;;;;;;;14.65;61.21;101110.84;5122787;27;40935;-82
2023/02/12 10:40:36;;;;;;;29.37;21.40;;;;;;;14.64;61.15;101098.44;5129057;27;43179;-82
2023/02/12 10:43:04;;;;;;;28.57;20.00;;;;;;;14.76;60.71;101113.03;5117197;27;41416;-82
2023/02/12 10:45:35;;;;;;;26.53;18.67;;;;;;;15.18;59.08;101113.81;5092516;27;39257;-82
2023/02/12 10:48:09;;;;;;;28.10;20.53;;;;;;;16.66;57.01;101095.94;5132053;27;43248;-82
2023/02/12 10:50:50;;;;;;;26.53;19.10;;;;;;;17.84;54.38;101126.97;5123244;27;42882;-83
2023/02/12 10:53:21;;;;;;;23.03;18.57;;;;;;;19.50;49.66;101151.09;5133771;27;43682;-83
2023/02/12 10:55:50;;;;;;;27.23;19.83;;;;;;;19.60;46.68;101142.34;5133678;27;38789;-83
2023/02/12 10:58:21;;;;;;;25.43;20.03;;;;;;;19.82;47.90;101154.41;5132862;27;40974;-82
2023/02/12 11:00:57;;;;;;;26.67;20.53;;;;;;;20.51;45.57;101157.03;5116357;27;44381;-83
2023/02/12 11:03:33;;;;;;;25.83;20.17;;;;;;;20.42;43.31;101174.66;5122600;27;43023;-83
2023/02/12 11:06:14;;;;;;;25.60;19.83;;;;;;;20.27;42.96;101172.09;5132861;27;39845;-83
2023/02/12 11:08:42;;;;;;;26.50;19.37;;;;;;;20.04;44.62;101155.59;5109321;27;42181;-82
2023/02/12 11:11:14;;;;;;;21.80;18.20;;;;;;;19.86;44.74;101138.00;5115987;27;42737;-83
2023/02/12 11:13:47;;;;;;;23.83;18.40;;;;;;;19.70;44.78;101121.09;5132063;27;42186;-83
2023/02/12 11:16:26;;;;;;;23.03;18.57;;;;;;;19.59;43.71;101139.75;5124531;27;40145;-84
2023/02/12 11:19:00;;;;;;;21.30;16.33;;;;;;;19.22;45.70;101125.06;5111695;27;41306;-84
2023/02/12 11:21:28;;;;;;;22.43;16.60;;;;;;;19.08;46.78;101127.72;5106837;27;43107;-83
2023/02/12 11:23:55;;;;;;;22.80;16.87;;;;;;;18.80;47.19;101118.66;5116170;27;41071;-83
2023/02/12 11:26:27;;;;;;;23.57;16.93;;;;;;;18.49;46.27;101118.75;5111116;27;39306;-83
2023/02/12 11:28:56;;;;;;;24.30;16.57;;;;;;;18.26;47.67;101112.94;5115574;27;43253;-83
2023/02/12 11:31:26;;;;;;;21.07;16.60;;;;;;;18.28;48.08;101105.66;5122451;27;42811;-83
2023/02/12 11:34:14;;;;;;;20.10;15.83;;;;;;;18.23;48.13;101104.19;5105902;27;44389;-83
2023/02/12 11:36:44;;;;;;;21.27;15.63;;;;;;;18.30;48.33;101103.72;5123597;27;40346;-80
2023/02/12 11:39:21;;;;;;;23.93;17.53;;;;;;;18.38;47.39;101099.75;5129845;27;41911;-82
2023/02/12 11:41:52;;;;;;;23.47;17.47;;;;;;;18.39;47.08;101106.84;5106191;27;41185;-81
2023/02/12 11:44:22;;;;;;;22.03;16.80;;;;;;;18.07;46.95;101071.16;5131507;27;42998;-82
2023/02/12 11:46:54;;;;;;;22.43;17.83;;;;;;;18.26;47.31;101104.88;5133307;27;39444;-81
2023/02/12 11:49:25;;;;;;;23.03;18.23;;;;;;;18.54;47.27;101089.84;5127874;27;41880;-81
2023/02/12 11:51:54;;;;;;;23.47;17.87;;;;;;;18.82;47.25;101083.66;5114436;27;41691;-81
2023/02/12 11:54:25;;;;;;;23.13;17.37;;;;;;;19.15;47.26;101092.34;5132306;27;42318;-82
2023/02/12 11:56:54;;;;;;;23.97;17.53;;;;;;;19.29;45.35;101092.31;5115114;27;39901;-82
2023/02/12 11:59:31;;;;;;;22.47;17.13;;;;;;;19.11;44.54;101079.19;5114077;27;40976;-82
2023/02/12 12:02:05;;;;;;;21.27;17.30;;;;;;;19.46;44.47;101090.38;5131782;27;41867;-82
2023/02/12 12:04:36;;;;;;;20.17;16.13;;;;;;;21.61;43.48;101100.84;5114741;27;42426;-82
2023/02/12 12:07:13;;;;;;;20.37;15.73;;;;;;;24.10;39.83;101099.38;5110989;27;39614;-83
2023/02/12 12:09:46;;;;;;;18.70;15.63;;;;;;;26.83;34.95;101126.44;5106938;27;41509;-84
2023/02/12 12:12:20;;;;;;;18.40;14.77;;;;;;;28.06;33.61;101132.66;5128937;27;41417;-83
2023/02/12 12:20:33;;;;;;;16.27;14.17;;;;;;;27.19;31.52;101126.72;5118325;27;42585;-83
2023/02/12 12:23:05;;;;;;;16.30;14.00;;;;;;;25.44;32.77;101112.19;5124343;27;43765;-82
2023/02/12 12:25:42;;;;;;;15.17;13.17;;;;;;;24.08;35.08;101106.75;5118781;27;42805;-83
2023/02/12 12:28:27;;;;;;;16.60;13.47;;;;;;;23.28;36.13;101093.41;5123585;27;42374;-82
2023/02/12 12:31:03;;;;;;;13.57;12.10;;;;;;;25.19;34.97;101098.09;5121666;27;42278;-83
2023/02/12 12:33:39;;;;;;;14.23;11.70;;;;;;;25.15;34.68;101088.50;5130018;27;43642;-82
2023/02/12 12:36:45;;;;;;;11.67;9.23;;;;;;;24.34;35.10;101089.22;5116012;27;42255;-82
2023/02/12 12:39:19;;;;;;;10.53;8.33;;;;;;;23.45;35.60;101089.34;5110062;27;39936;-83
2023/02/12 12:42:19;;;;;;;10.43;8.67;;;;;;;22.95;36.38;101088.84;5116293;27;42311;-83
2023/02/12 12:45:05;;;;;;;10.63;9.40;;;;;;;22.58;37.06;101075.47;5115845;27;44733;-82
2023/02/12 12:47:44;;;;;;;9.40;8.37;;;;;;;22.51;37.53;101074.22;5130348;27;42219;-83
2023/02/12 12:50:35;;;;;;;11.97;9.17;;;;;;;21.81;37.83;101060.63;5115902;27;40393;-82
2023/02/12 12:53:20;;;;;;;10.40;8.70;;;;;;;21.16;39.22;101058.16;5130745;27;42836;-83
2023/02/12 12:56:10;;;;;;;12.63;10.47;;;;;;;20.83;39.67;101041.72;5130971;27;43011;-83
2023/02/12 12:58:55;;;;;;;14.03;10.83;;;;;;;21.24;39.42;101033.41;5131745;27;42677;-83
2023/02/12 13:01:42;;;;;;;14.93;11.63;;;;;;;21.08;40.06;101048.91;5133034;27;39212;-82
2023/02/12 13:04:34;;;;;;;16.47;12.23;;;;;;;20.71;40.43;101050.66;5115288;27;40817;-83
2023/02/12 13:07:18;;;;;;;15.53;11.80;;;;;;;20.14;41.28;101045.56;5115817;27;42709;-83
2023/02/12 13:10:04;;;;;;;15.63;12.67;;;;;;;19.58;42.42;101036.75;5132536;27;42548;-82
2023/02/12 13:12:48;;;;;;;17.87;12.80;;;;;;;18.99;43.52;101027.97;5130597;27;40343;-82
2023/02/12 13:15:25;;;;;;;16.57;13.10;;;;;;;18.43;44.39;101015.31;5132807;27;41708;-82
2023/02/12 13:18:01;;;;;;;15.63;12.27;;;;;;;18.08;45.46;101016.56;5129833;27;44345;-82
2023/02/12 13:20:41;;;;;;;14.37;11.47;;;;;;;17.74;46.06;100997.09;5129587;27;42311;-82
2023/02/12 13:23:15;;;;;;;16.07;11.23;;;;;;;17.63;46.43;101012.94;5129752;27;40992;-83
2023/02/12 13:25:54;;;;;;;16.30;11.47;;;;;;;17.51;47.06;101016.28;5129349;27;41889;-82
2023/02/12 13:28:31;;;;;;;13.80;10.73;;;;;;;17.25;47.49;100985.63;5115159;27;43114;-83
2023/02/12 13:31:01;;;;;;;14.10;10.57;;;;;;;17.16;47.41;101015.59;5115466;27;41005;-83
2023/02/12 13:33:37;;;;;;;15.43;12.10;;;;;;;16.79;48.51;101001.53;5132777;27;39919;-83
2023/02/12 13:36:08;;;;;;;16.20;12.37;;;;;;;16.68;49.08;101017.31;5129806;27;42515;-82
2023/02/12 13:38:40;;;;;;;15.10;11.50;;;;;;;16.42;49.64;100993.72;5115348;27;41825;-83
2023/02/12 13:41:11;;;;;;;16.00;11.57;;;;;;;16.34;49.77;101009.28;5129704;27;42380;-82
2023/02/12 13:43:49;;;;;;;13.57;10.97;;;;;;;16.15;50.22;101004.91;5130152;27;40041;-82
2023/02/12 13:46:29;;;;;;;14.73;10.50;;;;;;;15.99;50.88;100998.59;5132554;27;42142;-83
2023/02/12 13:49:10;;;;;;;13.30;9.93;;;;;;;15.56;50.99;100970.50;5132462;27;41835;-83
2023/02/12 13:51:44;;;;;;;14.30;9.50;;;;;;;15.59;51.37;101009.53;5132531;27;42837;-84
2023/02/12 13:54:25;;;;;;;13.07;9.40;;;;;;;15.45;51.95;101000.34;5114887;27;38962;-83
2023/02/12 13:56:57;;;;;;;9.53;7.37;;;;;;;15.30;51.94;101014.47;5115201;27;42001;-83
2023/02/12 13:59:53;;;;;;;7.37;5.60;;;;;;;15.15;51.82;101011.63;5132190;27;41903;-82
2023/02/12 14:02:49;;;;;;;5.10;4.47;;;;;;;15.01;51.88;101002.47;5095129;27;42367;-81
2023/02/12 14:05:29;;;;;;;6.27;4.20;;;;;;;14.74;52.71;100985.06;5114987;27;40401;-82
2023/02/12 14:07:59;;;;;;;4.73;4.10;;;;;;;14.70;52.78;101000.38;5115450;27;41766;-82
2023/02/12 14:10:31;;;;;;;5.20;3.73;;;;;;;14.55;53.20;101003.72;5114546;27;43388;-81
2023/02/12 14:13:14;;;;;;;6.03;3.80;;;;;;;14.40;53.69;100983.06;5115138;27;41155;-81
2023/02/12 14:15:45;;;;;;;3.83;3.43;;;;;;;14.31;54.04;100988.78;5133082;27;40859;-82
2023/02/12 14:18:29;;;;;;;3.63;3.33;;;;;;;14.18;53.97;100987.56;5135750;27;41935;-84
2023/02/12 14:21:34;;;;;;;5.43;3.77;;;;;;;14.14;53.92;100991.28;5135769;27;42789;-81
2023/02/12 14:24:50;;;;;;;4.73;3.67;;;;;;;14.05;54.57;100991.69;5135137;27;42148;-81
2023/02/12 14:27:27;;;;;;;4.00;3.10;;;;;;;13.96;55.13;100992.97;5118533;27;39936;-82
2023/02/12 14:30:24;;;;;;;3.27;2.97;;;;;;;13.85;55.18;100985.41;5134531;27;42000;-82
2023/02/12 14:33:11;;;;;;;3.83;3.53;;;;;;;13.76;55.25;100984.91;5118725;27;41996;-83
2023/02/12 14:35:40;;;;;;;7.40;4.20;;;;;;;13.61;55.87;100981.09;5122992;27;41907;-83
2023/02/12 14:39:00;;;;;;;5.77;3.93;;;;;;;13.57;56.27;100979.50;5135387;27;40824;-82
2023/02/12 14:41:43;;;;;;;3.63;3.33;;;;;;;13.36;56.40;100970.56;5132601;27;42526;-83
2023/02/12 14:44:45;;;;;;;4.07;3.60;;;;;;;13.36;56.46;100975.03;5135250;27;42133;-82
2023/02/12 14:47:31;;;;;;;4.37;3.63;;;;;;;13.20;56.75;100962.34;5118740;27;41232;-81
2023/02/12 14:50:08;;;;;;;3.67;3.37;;;;;;;13.18;56.85;100977.50;5117441;27;38869;-82
2023/02/12 14:52:40;;;;;;;3.77;2.90;;;;;;;13.05;57.35;100970.91;5135355;27;40985;-82
2023/02/12 14:55:21;;;;;;;6.37;3.73;;;;;;;13.12;57.36;100966.19;5134677;27;43554;-82
2023/02/12 15:06:41;;;;;;;6.17;5.20;;;;;;;12.77;58.81;100946.28;4937478;28;40917;-83
2023/02/12 15:09:12;;;;;;;6.90;5.30;;;;;;;12.69;59.48;100951.03;4991464;28;42303;-83
2023/02/12 15:11:45;;;;;;;6.77;5.27;;;;;;;12.62;59.77;100949.50;5057879;27;41253;-83
2023/02/12 15:14:19;;;;;;;6.20;5.07;;;;;;;12.58;59.98;100954.97;5131675;27;40877;-81
2023/02/12 15:16:57;;;;;;;7.87;6.30;;;;;;;12.40;60.52;100939.69;5132671;27;41916;-82
2023/02/12 15:19:37;;;;;;;10.23;7.60;;;;;;;12.22;61.80;100935.06;5117308;27;42726;-82
2023/02/12 15:22:19;;;;;;;8.97;6.53;;;;;;;12.24;61.88;100955.31;5117803;27;41213;-83
2023/02/12 15:24:47;;;;;;;9.03;6.50;;;;;;;12.17;61.94;100952.94;5110237;28;40013;-82
2023/02/12 15:27:16;;;;;;;8.27;6.43;;;;;;;12.06;62.31;100949.81;5126845;27;41991;-83
2023/02/12 15:29:47;;;;;;;10.33;6.97;;;;;;;11.97;62.55;100942.16;5115321;27;42920;-82
2023/02/12 15:32:22;;;;;;;8.67;6.57;;;;;;;11.99;62.67;100942.97;5132647;27;40859;-81
2023/02/12 15:34:52;;;;;;;8.57;6.63;;;;;;;11.91;63.08;100950.31;5130512;27;39839;-82
2023/02/12 15:37:25;;;;;;;9.80;6.70;;;;;;;11.92;63.36;100957.38;5114526;27;40671;-82
2023/02/12 15:39:56;;;;;;;7.97;6.10;;;;;;;11.86;63.35;100946.06;5125944;27;42999;-82
2023/02/12 15:42:25;;;;;;;9.73;6.50;;;;;;;11.85;64.16;100943.47;5130492;27;42623;-82
2023/02/12 15:45:02;;;;;;;9.83;6.37;;;;;;;11.83;63.72;100943.50;5129495;27;39604;-82
2023/02/12 15:47:31;;;;;;;8.40;5.70;;;;;;;11.77;63.58;100943.69;5111920;27;41186;-82
2023/02/12 15:50:00;;;;;;;7.40;5.40;;;;;;;11.76;63.61;100946.41;5133436;27;43233;-82
2023/02/12 15:52:34;;;;;;;7.27;5.87;;;;;;;11.76;63.46;100941.09;5132769;27;41921;-82
2023/02/12 15:55:03;;;;;;;8.37;5.93;;;;;;;11.66;63.89;100940.50;5121782;27;39914;-81
2023/02/12 15:57:32;;;;;;;7.03;6.13;;;;;;;11.62;63.59;100932.72;5107522;27;40653;-82
2023/02/12 16:00:06;;;;;;;9.50;6.37;;;;;;;11.58;63.68;100928.44;5129362;27;42827;-82
2023/02/12 16:02:40;;;;;;;7.27;5.43;;;;;;;11.56;64.15;100925.81;5128944;27;41539;-82
2023/02/12 16:05:15;;;;;;;8.57;5.80;;;;;;;11.56;64.35;100928.47;5120577;27;40514;-82
2023/02/12 16:07:46;;;;;;;8.73;6.40;;;;;;;11.42;64.90;100920.09;5115113;27;40529;-81
2023/02/12 16:10:16;;;;;;;6.90;5.23;;;;;;;11.40;64.51;100927.22;5128643;27;41733;-82
2023/02/12 16:12:44;;;;;;;7.03;5.37;;;;;;;11.44;64.61;100939.50;5113869;27;43571;-82
2023/02/12 16:15:25;;;;;;;7.37;5.80;;;;;;;11.32;65.22;100921.31;5127963;27;39921;-83
2023/02/12 16:17:53;;;;;;;7.50;5.83;;;;;;;11.35;64.75;100945.09;5114558;27;40504;-81
2023/02/12 16:20:26;;;;;;;8.77;6.50;;;;;;;11.32;65.05;100942.53;5128533;27;43569;-82
2023/02/12 16:22:57;;;;;;;8.70;6.93;;;;;;;11.27;65.52;100944.47;5108610;27;41732;-82
2023/02/12 16:25:27;;;;;;;10.10;6.63;;;;;;;11.14;65.24;100934.25;5125863;27;40011;-83
2023/02/12 16:27:59;;;;;;;8.67;6.27;;;;;;;11.21;65.08;100953.50;5114101;27;41675;-82
2023/02/12 16:30:30;;;;;;;9.83;6.93;;;;;;;11.20;65.15;100956.19;5114756;27;41612;-82
2023/02/12 16:32:59;;;;;;;10.67;6.83;;;;;;;11.05;65.68;100931.03;5123182;27;42508;-83
2023/02/12 16:35:31;;;;;;;9.50;6.70;;;;;;;11.02;65.74;100931.97;5127315;27;40195;-83
2023/02/12 16:38:03;;;;;;;11.00;7.60;;;;;;;11.08;66.00;100947.72;5106202;27;40552;-84
2023/02/12 16:40:34;;;;;;;9.50;7.10;;;;;;;11.02;66.54;100945.25;5129081;27;44068;-83
2023/02/12 16:43:07;;;;;;;10.13;7.83;;;;;;;10.87;66.67;100937.78;5110447;27;42055;-83
2023/02/12 16:45:44;;;;;;;11.80;8.13;;;;;;;10.95;67.40;100959.63;5124085;27;40804;-84
2023/02/12 16:48:22;;;;;;;10.77;7.67;;;;;;;10.90;67.39;100958.88;5127840;27;43283;-83
2023/02/12 16:50:52;;;;;;;11.63;8.50;;;;;;;10.81;69.07;100953.84;5129291;27;42816;-82
2023/02/12 16:53:41;;;;;;;9.33;7.33;;;;;;;10.77;68.85;100947.78;5132897;27;41963;-83
2023/02/12 16:56:17;;;;;;;11.87;8.77;;;;;;;10.72;69.67;100943.53;5121197;27;40039;-83
2023/02/12 16:58:47;;;;;;;11.83;8.60;;;;;;;10.68;69.76;100941.88;5107092;27;41159;-83
2023/02/12 17:01:22;;;;;;;11.50;8.47;;;;;;;10.63;69.45;100943.81;5114035;27;43060;-83
2023/02/12 17:03:50;;;;;;;10.27;7.60;;;;;;;10.66;68.62;100952.53;5137915;27;42172;-82
2023/02/12 17:06:20;;;;;;;13.33;9.33;;;;;;;10.53;69.68;100929.06;5148949;27;39838;-82
2023/02/12 17:08:49;;;;;;;12.90;9.73;;;;;;;10.60;70.00;100947.41;5150968;27;42678;-83
2023/02/12 17:11:17;;;;;;;13.03;9.80;;;;;;;10.56;70.18;100958.13;5149004;27;41788;-84
2023/02/12 17:13:45;;;;;;;11.80;8.73;;;;;;;10.54;70.69;100954.66;5148865;27;41156;-84
2023/02/12 17:16:13;;;;;;;12.80;9.30;;;;;;;10.45;70.93;100950.50;5117587;27;38985;-83
2023/02/12 17:18:42;;;;;;;14.47;9.10;;;;;;;10.45;71.73;100947.84;5116975;27;41013;-84
2023/02/12 17:21:21;;;;;;;10.90;8.37;;;;;;;10.43;71.50;100954.97;5132811;27;42783;-85
2023/02/12 17:23:52;;;;;;;12.43;9.17;;;;;;;10.38;71.66;100955.13;5118873;27;42678;-84
2023/02/12 17:26:20;;;;;;;13.67;9.20;;;;;;;10.35;72.10;100960.50;5132244;27;38918;-83
2023/02/12 17:28:48;;;;;;;10.27;8.07;;;;;;;10.25;71.63;100951.09;5114298;27;40834;-83
2023/02/12 17:31:16;;;;;;;11.53;7.80;;;;;;;10.32;71.49;100955.28;5114418;27;42005;-83
2023/02/12 17:33:44;;;;;;;12.23;7.83;;;;;;;10.23;71.58;100955.53;5114928;27;41311;-83
2023/02/12 17:36:12;;;;;;;10.37;7.40;;;;;;;10.32;71.57;100976.47;5122493;27;39930;-83
2023/02/12 17:38:39;;;;;;;10.63;8.27;;;;;;;10.22;71.58;100953.81;5131882;27;42119;-82
2023/02/12 17:41:11;;;;;;;9.37;7.00;;;;;;;10.32;71.32;100973.81;5111125;27;43343;-83
2023/02/12 17:43:39;;;;;;;10.63;7.70;;;;;;;10.21;70.94;100956.50;5117700;27;42872;-83
2023/02/12 17:46:10;;;;;;;10.53;7.60;;;;;;;10.34;70.85;100977.31;5094688;28;41554;-83
2023/02/12 17:48:39;;;;;;;10.47;7.30;;;;;;;10.34;71.00;100985.25;5095000;28;41181;-82
2023/02/12 17:51:06;;;;;;;10.17;7.20;;;;;;;10.33;70.81;100991.44;5113488;28;42961;-83
2023/02/12 17:53:34;;;;;;;9.87;7.43;;;;;;;10.33;70.67;100987.94;5115591;28;42438;-82
2023/02/12 17:56:02;;;;;;;9.23;7.10;;;;;;;10.32;70.14;100987.06;5097858;28;40114;-82
2023/02/12 17:58:31;;;;;;;11.37;8.10;;;;;;;10.34;70.92;100994.97;5115144;28;40543;-82
2023/02/12 18:01:04;;;;;;;11.90;8.77;;;;;;;10.30;71.53;100999.47;5116475;28;43731;-82
2023/02/12 18:03:32;;;;;;;10.83;8.20;;;;;;;10.26;71.53;100997.81;5112443;28;41799;-82
2023/02/12 18:06:00;;;;;;;12.20;8.03;;;;;;;10.24;71.50;101010.25;5115333;28;39118;-82
2023/02/12 18:08:28;;;;;;;12.60;8.97;;;;;;;10.18;72.12;100986.56;5116039;28;43109;-81
2023/02/12 18:10:56;;;;;;;12.17;8.53;;;;;;;10.18;72.35;101005.09;5097706;28;41676;-83
2023/02/12 18:13:24;;;;;;;16.43;10.43;;;;;;;10.16;72.33;101006.88;5114663;28;43180;-82
2023/02/12 18:15:54;;;;;;;15.63;10.33;;;;;;;10.14;72.57;101016.63;5097492;28;41648;-82
2023/02/12 18:18:22;;;;;;;14.30;10.10;;;;;;;10.02;71.74;101003.72;5115742;28;41719;-82
2023/02/12 18:20:50;;;;;;;12.03;9.70;;;;;;;10.15;72.05;101021.03;5114954;28;42490;-82
2023/02/12 18:23:17;;;;;;;15.70;9.70;;;;;;;10.09;71.93;101008.84;5097691;28;43350;-82
2023/02/12 18:25:45;;;;;;;14.43;10.17;;;;;;;10.01;71.83;101005.50;5115087;28;40076;-82
2023/02/12 18:28:13;;;;;;;13.30;9.53;;;;;;;9.91;71.78;100989.91;5114189;28;41078;-83
2023/02/12 18:30:42;;;;;;;14.57;10.63;;;;;;;10.07;71.97;101023.88;5115143;28;41424;-81
2023/02/12 18:33:13;;;;;;;18.13;11.97;;;;;;;9.97;72.63;101005.63;5114655;28;42298;-82
2023/02/12 18:35:41;;;;;;;19.90;12.37;;;;;;;9.92;72.84;101004.88;5115206;28;39667;-83
2023/02/12 18:38:09;;;;;;;20.13;14.23;;;;;;;9.94;73.66;101014.53;5114795;28;41734;-84
2023/02/12 18:40:40;;;;;;;21.67;13.93;;;;;;;9.89;73.58;101007.63;5097758;28;42319;-83
2023/02/12 18:43:07;;;;;;;18.93;13.43;;;;;;;9.88;73.87;101013.81;5116123;28;42325;-83
2023/02/12 18:45:36;;;;;;;18.10;12.97;;;;;;;9.84;74.42;101010.38;5114772;28;39074;-81
2023/02/12 18:48:07;;;;;;;19.33;13.93;;;;;;;9.75;74.04;100994.72;5097484;28;41980;-83
2023/02/12 18:50:37;;;;;;;17.40;11.57;;;;;;;9.49;73.08;100955.69;5097646;28;41951;-83
2023/02/12 18:53:05;;;;;;;20.77;14.37;;;;;;;9.78;73.97;101007.88;5097159;28;41032;-83
2023/02/12 18:55:33;;;;;;;23.07;14.63;;;;;;;9.62;74.31;100991.53;5114140;28;39001;-82
2023/02/12 18:58:01;;;;;;;17.93;13.00;;;;;;;9.68;74.61;101009.00;5096986;28;42511;-82
2023/02/12 19:00:29;;;;;;;21.43;14.50;;;;;;;9.64;74.71;101008.19;5097045;28;42981;-82
2023/02/12 19:02:57;;;;;;;21.57;13.90;;;;;;;9.61;74.58;101010.94;5096700;28;41363;-81
2023/02/12 19:05:25;;;;;;;20.90;13.93;;;;;;;9.55;75.09;101003.13;5095776;28;42569;-82
2023/02/12 19:07:54;;;;;;;20.30;13.57;;;;;;;9.50;75.30;100999.75;5097090;28;42083;-84
2023/02/12 19:10:22;;;;;;;20.20;13.43;;;;;;;9.37;75.87;100987.72;5108383;27;42158;-84
2023/02/12 19:12:50;;;;;;;23.30;14.97;;;;;;;9.35;75.74;100994.81;5109013;28;41246;-80
2023/02/12 19:15:18;;;;;;;22.77;14.10;;;;;;;9.11;75.60;100983.03;5095405;28;40157;-82
2023/02/12 19:17:46;;;;;;;20.23;13.40;;;;;;;9.18;75.46;101007.53;5116823;27;40659;-82
2023/02/12 19:20:14;;;;;;;16.90;11.67;;;;;;;9.08;75.52;100995.44;5110171;28;43131;-81
2023/02/12 19:22:42;;;;;;;17.80;11.57;;;;;;;8.93;75.44;100981.66;5124294;27;41945;-80
2023/02/12 19:25:12;;;;;;;20.60;13.87;;;;;;;8.99;75.94;101005.31;5128126;27;40305;-80
2023/02/12 19:27:40;;;;;;;20.43;12.97;;;;;;;8.93;75.72;101000.16;5114687;27;40837;-82
2023/02/12 19:30:08;;;;;;;19.83;13.13;;;;;;;8.84;76.07;100995.06;5128852;27;42707;-81
2023/02/12 19:32:37;;;;;;;20.57;13.73;;;;;;;8.69;76.73;100991.88;5108079;27;42333;-79
2023/02/12 19:35:05;;;;;;;22.20;13.53;;;;;;;8.53;76.81;100999.25;5109051;27;39146;-84
2023/02/12 19:37:33;;;;;;;18.83;11.83;;;;;;;8.38;76.78;100986.34;5133358;27;41627;-79
2023/02/12 19:40:01;;;;;;;18.13;11.90;;;;;;;8.40;76.22;101000.41;5110834;27;41788;-82
2023/02/12 19:42:30;;;;;;;20.53;12.53;;;;;;;8.21;76.32;100984.88;5112673;27;42338;-83
2023/02/12 19:44:58;;;;;;;17.73;10.23;;;;;;;8.25;75.99;101002.41;5125756;27;40189;-80
2023/02/12 19:47:26;;;;;;;16.30;11.23;;;;;;;8.18;75.81;101011.31;5115288;27;42092;-83
2023/02/12 19:49:54;;;;;;;17.73;11.67;;;;;;;8.07;76.25;100997.44;5128779;27;43048;-80
2023/02/12 19:52:21;;;;;;;16.10;11.37;;;;;;;7.98;76.75;100997.63;5111040;27;42599;-83
2023/02/12 19:54:49;;;;;;;21.93;13.53;;;;;;;7.83;77.56;100990.84;5110311;27;39380;-83
2023/02/12 19:57:18;;;;;;;20.47;13.03;;;;;;;7.76;77.31;100996.25;5131855;27;42183;-82
2023/02/12 19:59:47;;;;;;;21.03;12.47;;;;;;;7.65;77.14;100990.28;5123760;27;43662;-82
2023/02/12 20:02:15;;;;;;;20.83;12.00;;;;;;;7.70;77.02;101010.41;5123445;27;42215;-82
2023/02/12 20:04:43;;;;;;;16.83;11.20;;;;;;;7.69;76.97;101007.78;5128248;27;40385;-82
2023/02/12 20:07:11;;;;;;;19.10;12.33;;;;;;;7.71;76.61;101004.22;5130141;27;41112;-82
2023/02/12 20:09:40;;;;;;;19.63;12.23;;;;;;;7.60;77.20;100982.44;5111174;27;44059;-79
2023/02/12 20:12:08;;;;;;;19.00;11.70;;;;;;;7.71;76.98;101003.34;5130221;27;41223;-80
2023/02/12 20:14:35;;;;;;;20.37;13.17;;;;;;;7.68;77.11;100998.13;5110805;27;38892;-79
2023/02/12 20:17:05;;;;;;;17.87;11.67;;;;;;;7.69;76.92;101005.13;5113034;27;42145;-83
2023/02/12 20:19:33;;;;;;;19.30;12.10;;;;;;;7.64;76.36;101007.00;5106025;27;41703;-80
2023/02/12 20:22:03;;;;;;;17.97;11.50;;;;;;;7.58;76.35;101014.09;5112795;27;41201;-82
2023/02/12 20:24:33;;;;;;;18.40;12.13;;;;;;;7.51;76.61;101017.75;5130688;27;39852;-82
2023/02/12 20:27:03;;;;;;;19.93;11.97;;;;;;;7.41;76.84;101012.63;5107741;27;42522;-83
2023/02/12 20:29:31;;;;;;;18.03;10.50;;;;;;;7.38;77.36;101024.09;5129043;27;43480;-83
2023/02/12 20:31:59;;;;;;;17.87;11.37;;;;;;;7.36;77.58;101025.00;5111991;27;41881;-81
2023/02/12 20:34:29;;;;;;;18.47;11.20;;;;;;;7.18;77.40;101010.31;5130576;27;40083;-82
2023/02/12 20:36:56;;;;;;;17.73;11.40;;;;;;;7.20;77.21;101027.84;5111434;27;42259;-81
2023/02/12 20:39:25;;;;;;;17.30;11.03;;;;;;;7.10;77.06;101031.50;5109222;27;41599;-80
2023/02/12 20:41:52;;;;;;;14.50;10.07;;;;;;;7.00;77.42;101044.84;5109567;27;41485;-80
2023/02/12 20:44:21;;;;;;;18.03;10.57;;;;;;;6.71;77.27;101005.69;5132522;27;40444;-80
2023/02/12 20:46:51;;;;;;;14.30;9.00;;;;;;;6.68;77.48;101021.50;5115225;27;41829;-81
2023/02/12 20:49:19;;;;;;;14.53;8.97;;;;;;;6.72;77.25;101039.03;5132308;27;43707;-82
2023/02/12 20:51:50;;;;;;;15.37;9.77;;;;;;;6.65;77.74;101032.97;5115206;27;41412;-80
2023/02/12 20:54:18;;;;;;;16.80;9.60;;;;;;;6.62;77.34;101037.41;5131848;27;39161;-81
2023/02/12 20:56:45;;;;;;;13.93;8.53;;;;;;;6.46;77.40;101023.53;5132606;27;42703;-80
2023/02/12 20:59:13;;;;;;;15.03;9.30;;;;;;;6.53;77.41;101041.03;5132284;27;44228;-80
2023/02/12 21:01:42;;;;;;;15.60;9.87;;;;;;;6.27;77.57;101011.47;5132497;27;43413;-81
2023/02/12 21:04:13;;;;;;;16.00;9.03;;;;;;;6.41;77.60;101039.41;5115687;27;38942;-81
2023/02/12 21:06:41;;;;;;;13.57;9.00;;;;;;;6.37;77.57;101036.78;5115523;27;40768;-82
2023/02/12 21:09:13;;;;;;;11.73;7.87;;;;;;;6.34;77.94;101042.09;5132726;27;42596;-83
2023/02/12 21:11:44;;;;;;;18.20;10.30;;;;;;;6.29;77.56;101039.53;5132012;27;41473;-80
2023/02/12 21:14:14;;;;;;;16.83;9.70;;;;;;;6.25;77.70;101036.94;5115390;27;40195;-80
2023/02/12 21:16:43;;;;;;;13.10;8.10;;;;;;;6.08;77.92;101022.16;5115150;27;41812;-84
2023/02/12 21:19:12;;;;;;;14.60;9.50;;;;;;;6.10;78.56;101036.19;5115414;27;42069;-82
2023/02/12 21:21:43;;;;;;;16.73;10.17;;;;;;;5.96;79.23;101026.66;5131990;27;42323;-81
2023/02/12 21:24:15;;;;;;;16.70;10.30;;;;;;;5.85;79.70;101021.47;5129136;27;40253;-80
2023/02/12 21:26:46;;;;;;;12.87;8.93;;;;;;;5.89;80.10;101038.16;5130076;27;41941;-80
2023/02/12 21:29:14;;;;;;;15.17;9.57;;;;;;;5.79;80.67;101026.81;5115342;27;43093;-83